Hlavní strana
METAR-TAF:

METAR-TAF

Letiště :

El Borma, Tunisko

zeměpisná šířka: 31-41N, zeměpisná délka: 009-10E, výška: 258 m

Aktuální stav počasí

Zpráva byla vytvořena před 16 minutami, v 13:00 UTC
Východojihovýchodní vítr 8 kt, proměnlivý mezi východním a jihovýchodním
Teplota 25°C
Vlhkost vzduchu 14%
Tlak 1021 hPa
Viditelnost 10 km a více
Žádná oblačnost pod 1500 m, nevyskytují se cumulonimby.

METAR: DTTR 011300Z 11008KT 080V140 CAVOK 25/M04 Q1021

Čas: 14:16 (13:16 UTC)

Předpověď počasí

Zpráva byla vytvořena před 1 hodinou a 16 minutami, v 12:00 UTC
Předpověď platná od 01 v 13 UTC do 01 v 22 UTC
Severoseverovýchodní vítr 5 kt
Viditelnost 10 km a více
Žádná oblačnost pod 1500 m, nevyskytují se cumulonimby.
Změna
od 01 v 16 UTC do 01 v 18 UTC
Východoseverovýchodní vítr 15 kt

TAF: DTTR 011200Z 0113/0122 03005KT CAVOK BECMG 0116/0118 07015KT

Stav a předpovědi počasí z více než 4 000 letišť (zprávy METAR a TAF).

Červené a žluté tečky na mapě představují dostupné meteorologické stanice.

Když kurzor umístíte na tečku, zobrazí se název stanice.

Pak kliknutím zobrazíte stav a předpověď počasí.

Chcete-li změnit mapu, kliknutím na zelené tlačítko se znaménkem +mapu přiblížíte, kliknutím na zelené tlačítko se znaménkem – mapu oddálíte a kliknutím na zelené šipky přejdete na sousední mapy.


METAR-TAF: